createdAt,value
2022-08-12T00:00:35.344Z,101405.13
2022-08-12T00:03:21.224Z,101401.56
2022-08-12T00:06:07.250Z,101361.28
2022-08-12T00:08:53.339Z,101405.13
2022-08-12T00:11:40.228Z,101394.41
2022-08-12T00:14:25.746Z,101408.09
2022-08-12T00:17:11.225Z,101406.19
2022-08-12T00:19:56.613Z,101398.81
2022-08-12T00:22:41.681Z,101399.53
2022-08-12T00:26:05.598Z,101397.16
2022-08-12T00:28:34.486Z,101400.72
2022-08-12T00:31:19.883Z,101373.63
2022-08-12T00:34:05.542Z,101406.19
2022-08-12T00:36:51.093Z,101399.88
2022-08-12T00:39:36.551Z,101402.63
2022-08-12T00:42:12.599Z,101406.19
2022-08-12T00:44:43.405Z,101403.72
2022-08-12T00:47:25.631Z,101397.16
2022-08-12T00:49:54.384Z,101403.47
2022-08-12T00:52:22.541Z,101407.03
2022-08-12T00:54:51.490Z,101402.41
2022-08-12T00:57:20.352Z,101407.88
2022-08-12T00:59:52.785Z,101407.88
2022-08-12T01:02:25.784Z,101409.75
2022-08-12T01:05:12.568Z,101409.75
2022-08-12T01:07:58.783Z,101413.34
2022-08-12T01:10:44.657Z,101415.25
2022-08-12T01:13:19.221Z,101404.56
2022-08-12T01:15:50.458Z,101403.09
2022-08-12T01:18:18.695Z,101410.81
2022-08-12T01:20:51.046Z,101401.81
2022-08-12T01:23:50.637Z,101398.81
2022-08-12T01:26:21.005Z,101406.19
2022-08-12T01:28:50.321Z,101399.53
2022-08-12T01:31:19.425Z,101406.19
2022-08-12T01:33:52.083Z,101404.28
2022-08-12T01:36:20.369Z,101408.72
2022-08-12T01:38:48.448Z,101404.28
2022-08-12T01:41:16.588Z,101405.97
2022-08-12T01:43:45.807Z,101407.03
2022-08-12T01:46:17.920Z,101407.03
2022-08-12T01:49:01.237Z,101411.44
2022-08-12T01:52:21.311Z,101408.09
2022-08-12T01:54:29.246Z,101407.03
2022-08-12T01:56:59.672Z,101399.88
2022-08-12T01:59:50.103Z,101397.16
2022-08-12T02:02:19.729Z,101395.50
2022-08-12T02:05:14.257Z,101402.63
2022-08-12T02:08:02.925Z,101399.06
2022-08-12T02:10:53.745Z,101368.38
2022-08-12T02:13:48.435Z,101407.28
2022-08-12T02:16:30.392Z,101396.56
2022-08-12T02:19:22.002Z,101407.50
2022-08-12T02:22:00.852Z,101407.50
2022-08-12T02:24:33.352Z,101358.91
2022-08-12T02:27:01.870Z,101402.72
2022-08-12T02:29:29.690Z,101412.34
2022-08-12T02:32:00.271Z,101399.22
2022-08-12T02:34:28.402Z,101411.66
2022-08-12T02:36:57.570Z,101377.06
2022-08-12T02:39:33.790Z,101400.56
2022-08-12T02:42:04.864Z,101417.13
2022-08-12T02:44:37.068Z,101415.25
2022-08-12T02:47:07.034Z,101409.75
2022-08-12T02:49:48.262Z,101415.50
2022-08-12T02:52:17.844Z,101410.81
2022-08-12T02:54:45.661Z,101415.50
2022-08-12T02:57:14.432Z,101385.88
2022-08-12T02:59:42.219Z,101410.03
2022-08-12T03:02:12.378Z,101405.00
2022-08-12T03:04:44.847Z,101406.44
2022-08-12T03:07:14.794Z,101408.34
2022-08-12T03:10:04.267Z,101402.88
2022-08-12T03:12:36.015Z,101405.59
2022-08-12T03:15:12.919Z,101407.09
2022-08-12T03:18:24.480Z,101416.56
2022-08-12T03:20:42.730Z,101378.50
2022-08-12T03:23:11.640Z,101405.59
2022-08-12T03:25:49.392Z,101406.06
2022-08-12T03:28:37.550Z,101410.03
2022-08-12T03:31:06.684Z,101414.66
2022-08-12T03:33:37.424Z,101415.50
2022-08-12T03:36:06.978Z,101414.66
2022-08-12T03:38:37.212Z,101407.28
2022-08-12T03:41:24.202Z,101406.44
2022-08-12T03:44:17.558Z,101371.44
2022-08-12T03:47:04.121Z,101414.03
2022-08-12T03:49:51.178Z,101416.78
2022-08-12T03:52:36.190Z,101414.88
2022-08-12T03:55:21.819Z,101420.34
2022-08-12T03:58:08.086Z,101420.34
2022-08-12T04:00:36.791Z,101418.66
2022-08-12T04:03:25.438Z,101420.34
2022-08-12T04:05:56.763Z,101406.53
2022-08-12T04:08:26.236Z,101415.94
2022-08-12T04:11:12.053Z,101416.78
2022-08-12T04:13:40.786Z,101422.25
2022-08-12T04:16:10.389Z,101395.28
2022-08-12T04:18:38.729Z,101421.41
2022-08-12T04:21:10.046Z,101417.59
2022-08-12T04:23:39.251Z,101415.94
2022-08-12T04:26:07.055Z,101407.81
2022-08-12T04:28:34.970Z,101414.03
2022-08-12T04:31:04.715Z,101412.59
2022-08-12T04:33:32.613Z,101424.75
2022-08-12T04:36:00.544Z,101408.63
2022-08-12T04:38:29.663Z,101415.56
2022-08-12T04:40:57.917Z,101420.13
2022-08-12T04:44:01.135Z,101421.19
2022-08-12T04:46:13.657Z,101422.03
2022-08-12T04:48:41.452Z,101426.66
2022-08-12T04:51:09.564Z,101417.59
2022-08-12T04:53:38.714Z,101406.66
2022-08-12T04:56:06.971Z,101413.19
2022-08-12T04:58:36.801Z,101412.13
2022-08-12T05:01:04.905Z,101413.66
2022-08-12T05:03:45.867Z,101320.72
2022-08-12T05:06:26.449Z,101417.59
2022-08-12T05:08:57.576Z,101414.88
2022-08-12T05:11:25.858Z,101418.66
2022-08-12T05:13:57.517Z,101402.72
2022-08-12T05:16:27.232Z,101416.78
2022-08-12T05:18:59.643Z,101414.88
2022-08-12T05:21:27.401Z,101412.34
2022-08-12T05:23:56.590Z,101311.09
2022-08-12T05:26:25.037Z,101401.06
2022-08-12T05:28:54.187Z,101416.78
2022-08-12T05:31:42.544Z,101411.31
2022-08-12T05:34:10.307Z,101420.34
2022-08-12T05:36:38.932Z,101417.59
2022-08-12T05:39:08.406Z,101415.72
2022-08-12T05:41:37.942Z,101422.84
2022-08-12T05:44:06.524Z,101423.06
2022-08-12T05:46:34.595Z,101418.88
2022-08-12T05:49:02.432Z,101423.91
2022-08-12T05:51:39.931Z,101419.28
2022-08-12T05:54:10.898Z,101423.06
2022-08-12T05:56:39.351Z,101422.25
2022-08-12T05:59:07.657Z,101426.66
2022-08-12T06:02:09.139Z,101424.97
2022-08-12T06:04:24.034Z,101431.28
2022-08-12T06:06:53.527Z,101425.81
2022-08-12T06:09:23.457Z,101397.88
2022-08-12T06:12:05.020Z,101428.56
2022-08-12T06:14:36.421Z,101396.44
2022-08-12T06:17:05.074Z,101431.13
2022-08-12T06:20:22.848Z,101425.44
2022-08-12T06:22:20.784Z,101406.69
2022-08-12T06:24:50.040Z,101432.34
2022-08-12T06:27:18.906Z,101434.03
2022-08-12T06:30:08.283Z,101424.13
2022-08-12T06:32:35.480Z,101428.56
2022-08-12T06:35:25.074Z,101431.28
2022-08-12T06:37:56.371Z,101435.91
2022-08-12T06:40:40.363Z,101430.91
2022-08-12T06:43:08.222Z,101417.09
2022-08-12T06:45:45.662Z,101443.06
2022-08-12T06:48:14.283Z,101441.16
2022-08-12T06:50:44.510Z,101434.03
2022-08-12T06:53:12.406Z,101432.34
2022-08-12T06:55:58.370Z,101432.97
2022-08-12T06:58:26.491Z,101434.84
2022-08-12T07:00:55.930Z,101427.34
2022-08-12T07:03:27.737Z,101428.56
2022-08-12T07:05:56.364Z,101430.44
2022-08-12T07:08:25.561Z,101430.44
2022-08-12T07:10:59.129Z,101422.72
2022-08-12T07:13:28.199Z,101429.38
2022-08-12T07:15:56.869Z,101427.72
2022-08-12T07:18:27.441Z,101411.00
2022-08-12T07:20:56.246Z,101433.19
2022-08-12T07:23:24.444Z,101425.81
2022-08-12T07:25:56.442Z,101430.44
2022-08-12T07:28:29.390Z,101437.81
2022-08-12T07:30:57.937Z,101435.09
2022-08-12T07:33:28.049Z,101441.38
2022-08-12T07:35:56.604Z,101439.50
2022-08-12T07:38:29.250Z,101436.75
2022-08-12T07:41:02.061Z,101439.50
2022-08-12T07:43:32.016Z,101348.66
2022-08-12T07:46:00.274Z,101443.06
2022-08-12T07:48:28.499Z,101435.91
2022-08-12T07:50:56.689Z,101442.22
2022-08-12T07:53:24.585Z,101439.28
2022-08-12T07:55:52.351Z,101443.91
2022-08-12T07:58:20.205Z,101441.16
2022-08-12T08:00:50.050Z,101436.97
2022-08-12T08:03:17.868Z,101443.06
2022-08-12T08:05:46.551Z,101448.31
2022-08-12T08:08:15.357Z,101442.22
2022-08-12T08:10:43.475Z,101446.63
2022-08-12T08:13:11.916Z,101443.91
2022-08-12T08:16:01.887Z,101444.75
2022-08-12T08:18:28.957Z,101440.56
2022-08-12T08:20:57.308Z,101445.19
2022-08-12T08:23:46.921Z,101451.06
2022-08-12T08:26:24.806Z,101444.75
2022-08-12T08:28:53.104Z,101439.94
2022-08-12T08:31:21.606Z,101445.81
2022-08-12T08:34:04.812Z,101450.22
2022-08-12T08:36:38.567Z,101447.69
2022-08-12T08:39:06.428Z,101443.91
2022-08-12T08:42:19.188Z,101444.75
2022-08-12T08:44:39.672Z,101448.31
2022-08-12T08:47:07.664Z,101443.91
2022-08-12T08:49:37.078Z,101441.16
2022-08-12T08:52:06.156Z,101433.81
2022-08-12T08:54:34.398Z,101445.59
2022-08-12T08:57:02.271Z,101439.28
2022-08-12T08:59:30.076Z,101438.44
2022-08-12T09:01:58.271Z,101438.19
2022-08-12T09:05:12.892Z,101437.38
2022-08-12T09:10:31.357Z,101446.38
2022-08-12T09:13:22.920Z,101448.31
2022-08-12T09:15:55.848Z,101440.34
2022-08-12T09:18:26.642Z,101433.81
2022-08-12T09:21:02.285Z,101407.28
2022-08-12T09:23:57.191Z,101429.16
2022-08-12T09:26:22.817Z,101424.75
2022-08-12T09:28:56.372Z,101432.13
2022-08-12T09:32:07.182Z,101429.16
2022-08-12T09:34:25.722Z,101431.91
2022-08-12T09:37:01.641Z,101431.91
2022-08-12T09:40:01.396Z,101429.16
2022-08-12T09:42:44.018Z,101427.25
2022-08-12T09:46:06.165Z,101430.22
2022-08-12T09:48:19.984Z,101427.50
2022-08-12T09:50:51.617Z,101420.13
2022-08-12T09:53:29.402Z,101410.03
2022-08-12T09:57:00.811Z,101415.50
2022-08-12T09:58:59.696Z,101412.75
2022-08-12T10:01:35.469Z,101408.94
2022-08-12T10:04:19.924Z,101402.63
2022-08-12T10:06:55.330Z,101397.25
2022-08-12T10:09:28.482Z,101370.53
2022-08-12T10:12:33.343Z,101399.06
2022-08-12T10:15:01.643Z,101395.25
2022-08-12T10:17:29.615Z,101396.09
2022-08-12T10:19:59.523Z,101393.34
2022-08-12T10:22:39.103Z,101376.09
2022-08-12T10:26:35.118Z,101345.22
2022-08-12T10:28:34.289Z,101375.25
2022-08-12T10:31:05.080Z,101360.03
2022-08-12T10:33:33.608Z,101363.53
2022-08-12T10:36:12.490Z,101362.44
2022-08-12T10:38:43.859Z,101364.09
2022-08-12T10:41:58.656Z,101363.25
2022-08-12T10:44:19.119Z,101354.22
2022-08-12T10:46:49.156Z,101342.44
2022-08-12T10:50:02.762Z,101343.28
2022-08-12T10:52:34.725Z,101341.38
2022-08-12T10:54:55.891Z,101331.75
2022-08-12T10:58:14.199Z,101331.28
2022-08-12T11:00:34.945Z,101332.94
2022-08-12T11:04:22.745Z,101294.56
2022-08-12T11:07:09.935Z,101318.06
2022-08-12T11:08:43.379Z,101315.47
2022-08-12T11:12:07.626Z,101312.75
2022-08-12T11:14:05.716Z,101302.72
2022-08-12T11:16:35.462Z,101309.16
2022-08-12T11:19:05.614Z,101302.84
2022-08-12T11:21:56.791Z,101190.84
2022-08-12T11:24:31.993Z,101303.47
2022-08-12T11:27:07.317Z,101296.31
2022-08-12T11:30:05.346Z,101297.59
2022-08-12T11:32:25.376Z,101294.66
2022-08-12T11:34:54.993Z,101288.94
2022-08-12T11:37:25.952Z,101258.09
2022-08-12T11:42:35.951Z,101287.88
2022-08-12T11:45:16.599Z,101285.13
2022-08-12T11:47:46.269Z,101283.22
2022-08-12T11:50:19.155Z,101278.63
2022-08-12T11:52:56.826Z,101275.88
2022-08-12T11:55:25.074Z,101280.50
2022-08-12T11:58:39.396Z,101273.16
2022-08-12T12:03:41.568Z,101265.78
2022-08-12T12:06:16.390Z,101247.53
2022-08-12T12:08:50.917Z,101259.03
2022-08-12T12:11:21.203Z,101268.66
2022-08-12T12:14:07.814Z,101261.06
2022-08-12T12:16:38.056Z,101262.94
2022-08-12T12:19:10.069Z,101258.91
2022-08-12T12:21:47.058Z,101258.22
2022-08-12T12:24:21.966Z,101261.53
2022-08-12T12:27:00.345Z,101242.38
2022-08-12T12:30:19.077Z,101220.25
2022-08-12T12:32:18.490Z,101249.03
2022-08-12T12:35:13.848Z,101240.81
2022-08-12T12:38:03.469Z,101232.63
2022-08-12T12:40:29.848Z,101232.38
2022-08-12T12:43:03.026Z,101235.13
2022-08-12T12:45:33.593Z,101211.94
2022-08-12T12:48:02.411Z,101212.50
2022-08-12T12:50:35.906Z,101209.88
2022-08-12T12:54:05.238Z,101209.88
2022-08-12T12:56:06.861Z,101212.63
2022-08-12T12:58:34.697Z,101212.88
2022-08-12T13:01:04.836Z,101207.41
2022-08-12T13:03:54.199Z,101201.94
2022-08-12T13:06:30.199Z,101199.44
2022-08-12T13:09:02.686Z,101201.34
2022-08-12T13:11:41.195Z,101198.38
2022-08-12T13:14:13.040Z,101187.88
2022-08-12T13:16:57.510Z,101193.97
2022-08-12T13:19:37.771Z,101124.78
2022-08-12T13:22:21.097Z,101197.53
2022-08-12T13:24:55.049Z,101185.75
2022-08-12T13:27:35.077Z,101094.13
2022-08-12T13:30:06.818Z,101177.66
2022-08-12T13:32:38.552Z,101177.78
2022-08-12T13:35:20.024Z,101184.91
2022-08-12T13:37:57.122Z,101182.19
2022-08-12T13:40:25.975Z,101184.91
2022-08-12T13:42:57.883Z,101170.41
2022-08-12T13:45:26.149Z,101168.59
2022-08-12T13:47:56.448Z,101175.03
2022-08-12T13:50:26.715Z,101170.41
2022-08-12T13:52:56.055Z,101168.72
2022-08-12T13:55:30.905Z,101164.34
2022-08-12T13:58:00.001Z,101157.44
2022-08-12T14:00:38.415Z,101163.50
2022-08-12T14:03:07.488Z,101156.97
2022-08-12T14:05:38.871Z,101149.84
2022-08-12T14:08:10.979Z,101150.66
2022-08-12T14:10:50.911Z,101149.84
2022-08-12T14:14:03.596Z,101143.53
2022-08-12T14:16:10.978Z,101143.53
2022-08-12T14:18:44.817Z,101146.25
2022-08-12T14:21:22.268Z,101143.28
2022-08-12T14:24:05.336Z,101141.63
2022-08-12T14:26:39.049Z,101141.34
2022-08-12T14:29:07.043Z,101131.75
2022-08-12T14:31:40.696Z,101131.25
2022-08-12T14:34:11.401Z,101125.78
2022-08-12T14:36:42.396Z,101088.31
2022-08-12T14:39:12.264Z,101104.38
2022-08-12T14:41:48.453Z,101109.63
2022-08-12T14:44:58.999Z,101121.16
2022-08-12T14:47:13.377Z,101129.97
2022-08-12T14:50:41.647Z,101128.28
2022-08-12T14:53:03.409Z,101130.19
2022-08-12T14:58:08.873Z,101121.16
2022-08-12T15:00:54.329Z,101117.56
2022-08-12T15:03:25.836Z,101111.25
2022-08-12T15:06:39.223Z,101114.00
2022-08-12T15:09:07.590Z,101114.25
2022-08-12T15:11:48.733Z,101113.19
2022-08-12T15:14:25.604Z,101108.53
2022-08-12T15:16:54.018Z,101106.63
2022-08-12T15:20:28.647Z,101113.78
2022-08-12T15:22:37.684Z,101115.44
2022-08-12T15:25:00.432Z,101005.41
2022-08-12T15:27:31.674Z,101105.34
2022-08-12T15:29:59.872Z,101099.84
2022-08-12T15:32:32.452Z,101096.28
2022-08-12T15:35:01.449Z,101097.97
2022-08-12T15:37:59.052Z,101059.53
2022-08-12T15:40:29.787Z,101094.38
2022-08-12T15:43:01.109Z,101095.22
2022-08-12T15:45:32.132Z,101069.16
2022-08-12T15:48:16.460Z,101092.22
2022-08-12T15:50:46.210Z,101057.03
2022-08-12T15:53:15.622Z,101098.53
2022-08-12T15:55:45.618Z,101085.69
2022-08-12T15:58:16.657Z,101093.06
2022-08-12T16:00:45.392Z,101092.00
2022-08-12T16:03:19.293Z,101092.00
2022-08-12T16:06:12.888Z,101088.41
2022-08-12T16:08:42.453Z,101062.06
2022-08-12T16:11:15.668Z,101090.09
2022-08-12T16:13:48.039Z,101084.63
2022-08-12T16:16:23.654Z,101088.19
2022-08-12T16:18:56.179Z,101086.28
2022-08-12T16:21:52.909Z,101061.91
2022-08-12T16:24:12.815Z,101076.41
2022-08-12T16:26:42.364Z,101037.28
2022-08-12T16:29:16.223Z,101073.44
2022-08-12T16:31:45.140Z,101070.72
2022-08-12T16:34:25.850Z,101078.06
2022-08-12T16:37:04.516Z,101076.19
2022-08-12T16:40:00.665Z,101034.28
2022-08-12T16:42:28.318Z,101069.03
2022-08-12T16:44:59.445Z,101063.78
2022-08-12T16:47:27.667Z,101059.16
2022-08-12T16:49:57.819Z,101062.13
2022-08-12T16:52:25.647Z,101059.16
2022-08-12T16:54:54.967Z,101057.47
2022-08-12T16:57:34.925Z,101018.13
2022-08-12T17:00:07.880Z,101055.00
2022-08-12T17:02:37.812Z,101049.78
2022-08-12T17:05:14.932Z,101053.09
2022-08-12T17:07:47.241Z,101051.66
2022-08-12T17:10:35.958Z,101053.09
2022-08-12T17:13:10.178Z,101058.59
2022-08-12T17:15:57.411Z,101049.16
2022-08-12T17:18:42.825Z,101055.47
2022-08-12T17:21:19.897Z,101051.44
2022-08-12T17:23:53.930Z,101050.59
2022-08-12T17:26:22.554Z,101036.59
2022-08-12T17:28:56.283Z,101055.25
2022-08-12T17:31:59.740Z,101060.47
2022-08-12T17:34:33.659Z,101062.38
2022-08-12T17:37:05.493Z,101057.97
2022-08-12T17:40:15.395Z,101022.16
2022-08-12T17:42:33.040Z,101062.63
2022-08-12T17:45:18.081Z,101056.81
2022-08-12T17:48:05.194Z,101057.88
2022-08-12T17:50:35.888Z,101065.34
2022-08-12T17:53:03.995Z,101055.97
2022-08-12T17:55:43.858Z,101067.25
2022-08-12T17:58:15.437Z,101053.56
2022-08-12T18:00:45.421Z,101062.63
2022-08-12T18:04:04.731Z,101056.31
2022-08-12T18:06:13.780Z,101049.56
2022-08-12T18:08:43.443Z,101073.56
2022-08-12T18:12:04.697Z,101069.16
2022-08-12T18:14:27.833Z,101071.88
2022-08-12T18:16:56.970Z,101027.06
2022-08-12T18:19:26.413Z,101085.84
2022-08-12T18:22:03.126Z,101087.47
2022-08-12T18:24:30.965Z,101090.22
2022-08-12T18:26:58.753Z,101098.41
2022-08-12T18:29:27.143Z,101087.63
2022-08-12T18:32:35.178Z,101103.06
2022-08-12T18:35:10.601Z,101107.72
2022-08-12T18:37:42.184Z,101093.94
2022-08-12T18:40:29.036Z,101108.53
2022-08-12T18:42:59.246Z,101107.34
2022-08-12T18:45:31.484Z,101114.25
2022-08-12T18:48:14.918Z,101119.47
2022-08-12T18:50:49.553Z,101116.50
2022-08-12T18:54:06.681Z,101121.97
2022-08-12T18:56:07.319Z,101082.13
2022-08-12T18:58:59.980Z,101121.97
2022-08-12T19:02:19.368Z,101014.59
2022-08-12T19:04:18.105Z,101124.72
2022-08-12T19:06:47.401Z,101131.03
2022-08-12T19:09:16.297Z,101133.28
2022-08-12T19:12:02.906Z,101137.09
2022-08-12T19:14:32.818Z,101131.63
2022-08-12T19:17:04.841Z,101100.19
2022-08-12T19:19:41.620Z,101143.41
2022-08-12T19:22:11.728Z,101146.94
2022-08-12T19:25:14.329Z,101144.22
2022-08-12T19:27:50.695Z,101145.06
2022-08-12T19:30:37.943Z,101146.94
2022-08-12T19:33:07.862Z,101150.53
2022-08-12T19:36:24.035Z,101155.16
2022-08-12T19:38:27.202Z,101152.19
2022-08-12T19:40:55.311Z,101158.72
2022-08-12T19:43:26.549Z,101150.53
2022-08-12T19:46:15.120Z,101152.41
2022-08-12T19:48:58.763Z,101159.81
2022-08-12T19:51:33.877Z,101163.63
2022-08-12T19:54:05.624Z,101160.88
2022-08-12T19:56:35.053Z,101162.78
2022-08-12T19:59:19.121Z,101155.53
2022-08-12T20:02:02.597Z,101164.69
2022-08-12T20:04:37.449Z,101165.75
2022-08-12T20:07:05.894Z,101166.38
2022-08-12T20:09:39.858Z,101143.72
2022-08-12T20:12:11.564Z,101174.56
2022-08-12T20:14:45.102Z,101171.84
2022-08-12T20:17:14.372Z,101173.50
2022-08-12T20:20:05.647Z,101171.56
2022-08-12T20:22:33.489Z,101174.31
2022-08-12T20:25:07.334Z,101177.06
2022-08-12T20:28:04.853Z,101161.00
2022-08-12T20:30:52.641Z,101177.88
2022-08-12T20:33:19.042Z,101150.16
2022-08-12T20:36:13.862Z,101178.97
2022-08-12T20:38:39.768Z,101181.72
2022-08-12T20:41:17.468Z,101181.72
2022-08-12T20:43:49.336Z,101169.34
2022-08-12T20:46:17.743Z,101175.63
2022-08-12T20:48:54.815Z,101177.53
2022-08-12T20:51:27.421Z,101178.59
2022-08-12T20:53:58.789Z,101176.94
2022-08-12T20:56:34.466Z,101176.94
2022-08-12T20:59:04.626Z,101184.06
2022-08-12T21:01:47.149Z,101176.34
2022-08-12T21:04:33.546Z,101181.59
2022-08-12T21:07:08.751Z,101172.78
2022-08-12T21:09:40.671Z,101178.25
2022-08-12T21:12:24.715Z,101181.81
2022-08-12T21:15:23.515Z,101176.59
2022-08-12T21:18:08.767Z,101179.31
2022-08-12T21:20:39.015Z,101176.59
2022-08-12T21:23:08.836Z,101175.75
2022-08-12T21:25:45.075Z,101181.22
2022-08-12T21:28:15.137Z,101180.38
2022-08-12T21:31:11.204Z,101183.13
2022-08-12T21:33:32.144Z,101185.03
2022-08-12T21:36:22.716Z,101179.56
2022-08-12T21:39:02.056Z,101187.75
2022-08-12T21:41:50.228Z,101189.44
2022-08-12T21:44:23.941Z,101182.53
2022-08-12T21:47:19.548Z,101188.84
2022-08-12T21:49:55.454Z,101186.13
2022-08-12T21:52:34.079Z,101147.16
2022-08-12T21:55:03.225Z,101192.66
2022-08-12T21:57:36.524Z,101195.38
2022-08-12T22:00:19.822Z,101196.22
2022-08-12T22:03:05.328Z,101198.13
2022-08-12T22:05:50.473Z,101202.16
2022-08-12T22:08:25.554Z,101201.94
2022-08-12T22:10:56.590Z,101189.09
2022-08-12T22:14:04.100Z,101195.38
2022-08-12T22:16:14.550Z,101177.84
2022-08-12T22:18:44.433Z,101192.03
2022-08-12T22:21:22.262Z,101194.56
2022-08-12T22:24:04.993Z,101189.09
2022-08-12T22:26:37.869Z,101188.00
2022-08-12T22:29:23.616Z,101168.59
2022-08-12T22:31:54.593Z,101194.56
2022-08-12T22:34:29.292Z,101184.56
2022-08-12T22:36:57.880Z,101197.28
2022-08-12T22:39:26.503Z,101199.19
2022-08-12T22:42:12.096Z,101202.75
2022-08-12T22:44:57.293Z,101189.31
2022-08-12T22:47:53.926Z,101195.63
2022-08-12T22:50:27.522Z,101182.66
2022-08-12T22:53:15.080Z,101191.22
2022-08-12T22:55:58.990Z,101189.53
2022-08-12T22:58:33.746Z,101199.69
2022-08-12T23:01:03.573Z,101185.63
2022-08-12T23:03:49.260Z,101190.38
2022-08-12T23:06:19.919Z,101186.56
2022-08-12T23:08:48.340Z,101183.00
2022-08-12T23:11:17.878Z,101180.25
2022-08-12T23:13:55.496Z,101181.09
2022-08-12T23:16:31.663Z,101178.38
2022-08-12T23:19:09.814Z,101178.38
2022-08-12T23:22:05.678Z,101184.66
2022-08-12T23:24:55.924Z,101182.78
2022-08-12T23:27:50.183Z,101178.00
2022-08-12T23:30:24.964Z,101183.00
2022-08-12T23:32:59.918Z,101175.84
2022-08-12T23:35:53.944Z,101180.25
2022-08-12T23:38:30.646Z,101160.13
2022-08-12T23:41:00.880Z,101161.44
2022-08-12T23:43:38.415Z,101180.25
2022-08-12T23:46:08.743Z,101176.69
2022-08-12T23:48:37.748Z,101175.06
2022-08-12T23:51:23.438Z,101177.53
2022-08-12T23:53:56.306Z,101177.53
2022-08-12T23:56:29.493Z,101174.78
2022-08-12T23:58:57.467Z,101169.31
